createdAt,value
2023-03-14T00:01:35.397Z,0.55
2023-03-14T00:04:25.814Z,0.35
2023-03-14T00:07:21.399Z,0.60
2023-03-14T00:10:11.383Z,0.57
2023-03-14T00:13:08.249Z,0.40
2023-03-14T00:15:55.734Z,0.80
2023-03-14T00:18:47.405Z,0.50
2023-03-14T00:21:32.659Z,0.55
2023-03-14T00:24:24.412Z,0.80
2023-03-14T00:27:09.596Z,1.05
2023-03-14T00:30:01.399Z,0.80
2023-03-14T00:32:49.239Z,0.93
2023-03-14T00:35:40.445Z,0.47
2023-03-14T00:38:32.407Z,0.60
2023-03-14T00:41:23.601Z,0.50
2023-03-14T00:44:17.652Z,0.70
2023-03-14T00:47:09.397Z,0.40
2023-03-14T00:49:54.229Z,0.80
2023-03-14T00:52:45.400Z,0.50
2023-03-14T00:55:39.702Z,0.52
2023-03-14T00:58:33.399Z,0.40
2023-03-14T01:01:32.414Z,0.32
2023-03-14T01:04:27.598Z,0.45
2023-03-14T01:07:19.392Z,0.67
2023-03-14T01:10:19.486Z,0.40
2023-03-14T01:13:11.402Z,0.50
2023-03-14T01:15:56.414Z,0.35
2023-03-14T01:18:51.462Z,0.80
2023-03-14T01:21:42.397Z,0.53
2023-03-14T01:24:30.106Z,0.82
2023-03-14T01:27:21.418Z,0.80
2023-03-14T01:30:10.857Z,0.45
2023-03-14T01:33:02.410Z,0.70
2023-03-14T01:35:53.807Z,0.60
2023-03-14T01:38:48.382Z,0.38
2023-03-14T01:41:40.446Z,0.60
2023-03-14T01:44:25.267Z,0.20
2023-03-14T01:47:17.415Z,0.40
2023-03-14T01:50:08.937Z,0.20
2023-03-14T01:53:00.421Z,0.30
2023-03-14T01:55:45.638Z,0.38
2023-03-14T01:58:41.420Z,0.30
2023-03-14T02:01:34.485Z,0.25
2023-03-14T02:04:27.443Z,0.30
2023-03-14T02:07:27.441Z,0.30
2023-03-14T02:10:19.433Z,0.20
2023-03-14T02:13:16.958Z,0.30
2023-03-14T02:16:13.457Z,0.30
2023-03-14T02:19:06.417Z,0.50
2023-03-14T02:22:09.432Z,0.60
2023-03-14T02:25:24.425Z,0.70
2023-03-14T02:28:10.286Z,0.70
2023-03-14T02:31:02.415Z,0.80
2023-03-14T02:33:47.601Z,1.00
2023-03-14T02:36:39.438Z,0.75
2023-03-14T02:39:33.354Z,1.05
2023-03-14T02:42:24.431Z,1.08
2023-03-14T02:45:09.417Z,1.35
2023-03-14T02:48:06.452Z,0.93
2023-03-14T02:50:54.582Z,1.10
2023-03-14T02:53:46.428Z,0.63
2023-03-14T02:56:32.801Z,0.47
2023-03-14T02:59:26.469Z,0.65
2023-03-14T03:02:21.436Z,0.50
2023-03-14T03:05:13.427Z,0.25
2023-03-14T03:08:06.077Z,0.60
2023-03-14T03:10:57.434Z,0.40
2023-03-14T03:13:44.795Z,0.60
2023-03-14T03:16:36.475Z,0.90
2023-03-14T03:19:28.453Z,0.60
2023-03-14T03:22:15.835Z,0.70
2023-03-14T03:25:10.194Z,0.50
2023-03-14T03:27:55.513Z,0.50
2023-03-14T03:30:49.840Z,0.70
2023-03-14T03:33:34.796Z,0.63
2023-03-14T03:36:33.434Z,0.60
2023-03-14T03:39:18.267Z,0.82
2023-03-14T03:42:12.440Z,0.50
2023-03-14T03:44:57.361Z,0.33
2023-03-14T03:47:51.453Z,0.88
2023-03-14T03:50:44.296Z,0.77
2023-03-14T03:53:35.467Z,0.40
2023-03-14T03:56:21.632Z,0.45
2023-03-14T03:59:22.337Z,0.30
2023-03-14T04:02:34.482Z,0.63
2023-03-14T04:05:21.988Z,0.43
2023-03-14T04:08:13.458Z,0.40
2023-03-14T04:11:00.546Z,0.52
2023-03-14T04:13:52.458Z,0.40
2023-03-14T04:16:37.412Z,0.57
2023-03-14T04:19:30.258Z,0.40
2023-03-14T04:22:15.285Z,0.60
2023-03-14T04:25:08.884Z,0.40
2023-03-14T04:27:56.012Z,0.27
2023-03-14T04:30:47.466Z,0.40
2023-03-14T04:33:32.247Z,0.50
2023-03-14T04:36:23.467Z,0.25
2023-03-14T04:39:11.143Z,0.55
2023-03-14T04:42:02.452Z,0.70
2023-03-14T04:44:50.217Z,0.38
2023-03-14T04:47:42.472Z,0.45
2023-03-14T04:50:30.194Z,0.47
2023-03-14T04:53:23.479Z,0.43
2023-03-14T04:56:09.114Z,0.47
2023-03-14T04:59:02.460Z,0.20
2023-03-14T05:02:11.479Z,0.50
2023-03-14T05:05:05.555Z,0.50
2023-03-14T05:07:52.740Z,0.30
2023-03-14T05:10:44.471Z,0.20
2023-03-14T05:13:29.560Z,0.20
2023-03-14T05:16:21.498Z,0.20
2023-03-14T05:19:15.220Z,0.35
2023-03-14T05:22:00.342Z,0.10
2023-03-14T05:24:51.472Z,0.20
2023-03-14T05:27:36.573Z,0.30
2023-03-14T05:30:30.734Z,0.20
2023-03-14T05:33:15.944Z,0.10
2023-03-14T05:36:07.498Z,0.15
2023-03-14T05:38:58.475Z,0.30
2023-03-14T05:41:52.207Z,0.22
2023-03-14T05:44:39.704Z,0.17
2023-03-14T05:47:31.473Z,0.20
2023-03-14T05:50:16.671Z,0.10
2023-03-14T05:53:10.469Z,0.20
2023-03-14T05:55:58.010Z,0.20
2023-03-14T05:58:52.484Z,0.20
2023-03-14T06:01:43.693Z,0.10
2023-03-14T06:04:37.473Z,0.10
2023-03-14T06:07:22.260Z,0.20
2023-03-14T06:10:14.482Z,0.10
2023-03-14T06:13:01.730Z,0.20
2023-03-14T06:15:55.486Z,0.20
2023-03-14T06:18:43.334Z,0.10
2023-03-14T06:21:34.496Z,0.10
2023-03-14T06:24:19.404Z,0.10
2023-03-14T06:27:12.459Z,0.20
2023-03-14T06:29:57.658Z,0.10
2023-03-14T06:32:49.505Z,0.20
2023-03-14T06:35:34.340Z,0.10
2023-03-14T06:38:27.481Z,0.20
2023-03-14T06:41:12.415Z,0.15
2023-03-14T06:44:06.491Z,0.30
2023-03-14T06:46:51.425Z,0.20
2023-03-14T06:49:50.492Z,0.20
2023-03-14T06:52:42.037Z,0.10
2023-03-14T06:55:36.514Z,0.20
2023-03-14T06:58:23.637Z,0.10
2023-03-14T07:01:27.575Z,0.20
2023-03-14T07:04:15.503Z,0.10
2023-03-14T07:07:06.512Z,0.30
2023-03-14T07:09:51.513Z,0.10
2023-03-14T07:12:43.480Z,0.32
2023-03-14T07:15:28.602Z,0.20
2023-03-14T07:18:22.492Z,0.10
2023-03-14T07:21:16.495Z,0.10
2023-03-14T07:24:02.661Z,0.10
2023-03-14T07:29:44.178Z,0.17
2023-03-14T07:32:35.595Z,0.10
2023-03-14T07:35:29.532Z,0.20
2023-03-14T07:38:14.516Z,0.20
2023-03-14T07:41:12.500Z,0.10
2023-03-14T07:43:58.506Z,0.20
2023-03-14T07:46:50.545Z,0.10
2023-03-14T07:49:35.579Z,0.20
2023-03-14T07:52:32.527Z,0.10
2023-03-14T07:55:19.630Z,0.20
2023-03-14T07:58:15.001Z,0.20
2023-03-14T08:01:06.573Z,0.20
2023-03-14T08:04:04.525Z,0.10
2023-03-14T08:06:49.802Z,0.10
2023-03-14T08:09:41.513Z,0.10
2023-03-14T08:12:35.085Z,0.20
2023-03-14T08:15:26.518Z,0.20
2023-03-14T08:18:11.501Z,0.10
2023-03-14T08:21:03.532Z,0.20
2023-03-14T08:23:48.554Z,0.20
2023-03-14T08:26:39.521Z,0.20
2023-03-14T08:29:32.846Z,0.10
2023-03-14T08:32:27.536Z,0.20
2023-03-14T08:35:15.084Z,0.20
2023-03-14T08:38:09.541Z,0.10
2023-03-14T08:41:02.294Z,0.20
2023-03-14T08:43:53.598Z,0.10
2023-03-14T08:46:45.578Z,0.15
2023-03-14T08:49:30.467Z,0.10
2023-03-14T08:52:23.534Z,0.20
2023-03-14T08:55:09.909Z,0.20
2023-03-14T08:58:01.529Z,0.20
2023-03-14T09:00:53.625Z,0.20
2023-03-14T09:03:55.574Z,0.30
2023-03-14T09:06:44.312Z,0.20
2023-03-14T09:09:36.552Z,0.20
2023-03-14T09:12:23.072Z,0.20
2023-03-14T09:15:17.509Z,0.35
2023-03-14T09:18:09.567Z,0.10
2023-03-14T09:20:56.298Z,0.20
2023-03-14T09:23:53.561Z,0.17
2023-03-14T09:26:45.547Z,0.30
2023-03-14T09:29:36.561Z,0.20
2023-03-14T09:32:23.671Z,0.30
2023-03-14T09:35:17.516Z,0.30
2023-03-14T09:38:02.800Z,0.20
2023-03-14T09:40:57.533Z,0.30
2023-03-14T09:43:44.393Z,0.20
2023-03-14T09:46:38.528Z,0.20
2023-03-14T09:49:30.572Z,0.20
2023-03-14T09:52:28.968Z,0.30
2023-03-14T09:55:23.171Z,0.10
2023-03-14T09:58:23.552Z,0.30
2023-03-14T10:01:20.549Z,0.20
2023-03-14T10:04:19.828Z,0.22
2023-03-14T10:07:12.733Z,0.30
2023-03-14T10:10:05.549Z,0.27
2023-03-14T10:13:22.529Z,0.30
2023-03-14T10:16:07.853Z,0.40
2023-03-14T10:18:59.535Z,1.13
2023-03-14T10:21:52.736Z,0.75
2023-03-14T10:24:45.054Z,0.70
2023-03-14T10:27:37.593Z,0.80
2023-03-14T10:30:40.609Z,0.75
2023-03-14T10:33:37.539Z,0.82
2023-03-14T10:36:34.754Z,0.60
2023-03-14T10:39:46.559Z,0.37
2023-03-14T10:42:34.849Z,0.50
2023-03-14T10:45:42.550Z,0.40
2023-03-14T10:48:38.851Z,0.40
2023-03-14T10:51:36.575Z,0.40
2023-03-14T10:54:26.161Z,0.40
2023-03-14T10:57:18.554Z,0.40
2023-03-14T11:00:15.571Z,0.68
2023-03-14T11:03:28.569Z,0.30
2023-03-14T11:06:33.587Z,0.38
2023-03-14T11:09:28.880Z,0.40
2023-03-14T11:12:35.551Z,0.50
2023-03-14T11:15:41.567Z,0.65
2023-03-14T11:19:10.599Z,0.40
2023-03-14T11:22:41.589Z,0.50
2023-03-14T11:26:02.447Z,0.53
2023-03-14T11:28:57.570Z,0.30
2023-03-14T11:31:45.529Z,0.60
2023-03-14T11:34:48.584Z,0.60
2023-03-14T11:38:04.156Z,0.40
2023-03-14T11:41:01.670Z,0.60
2023-03-14T11:43:52.762Z,0.70
2023-03-14T11:47:05.033Z,0.80
2023-03-14T11:49:58.957Z,0.70
2023-03-14T11:52:57.563Z,0.60
2023-03-14T11:55:57.425Z,0.73
2023-03-14T11:58:52.064Z,0.77
2023-03-14T12:02:00.604Z,1.35
2023-03-14T12:05:12.025Z,0.80
2023-03-14T12:08:06.588Z,0.57
2023-03-14T12:10:59.248Z,0.70
2023-03-14T12:13:57.788Z,0.43
2023-03-14T12:16:47.114Z,0.40
2023-03-14T12:19:43.582Z,0.30
2023-03-14T12:22:38.462Z,0.30
2023-03-14T12:25:34.558Z,0.43
2023-03-14T12:28:33.552Z,0.30
2023-03-14T12:31:37.624Z,0.40
2023-03-14T12:34:26.694Z,0.50
2023-03-14T12:37:47.356Z,0.40
2023-03-14T12:41:00.361Z,0.50
2023-03-14T12:43:55.578Z,0.70
2023-03-14T12:46:40.538Z,1.48
2023-03-14T12:49:39.586Z,2.00
2023-03-14T12:53:10.585Z,1.60
2023-03-14T12:56:38.012Z,1.57
2023-03-14T12:59:39.599Z,1.90
2023-03-14T13:02:39.576Z,1.75
2023-03-14T13:05:31.205Z,1.33
2023-03-14T13:08:43.323Z,1.20
2023-03-14T13:11:34.604Z,1.37
2023-03-14T13:14:19.614Z,0.77
2023-03-14T13:17:33.733Z,0.70
2023-03-14T13:20:29.603Z,0.85
2023-03-14T13:23:33.526Z,0.90
2023-03-14T13:26:26.795Z,0.93
2023-03-14T13:29:18.065Z,1.52
2023-03-14T13:32:24.609Z,1.33
2023-03-14T13:35:24.302Z,0.70
2023-03-14T13:39:13.621Z,0.50
2023-03-14T13:42:03.087Z,0.60
2023-03-14T13:44:54.596Z,0.75
2023-03-14T13:47:46.586Z,1.23
2023-03-14T13:50:37.602Z,1.48
2023-03-14T13:53:25.071Z,1.27
2023-03-14T13:56:18.577Z,0.70
2023-03-14T13:59:08.385Z,0.57
2023-03-14T14:02:06.593Z,0.80
2023-03-14T14:05:00.721Z,0.77
2023-03-14T14:07:52.587Z,0.85
2023-03-14T14:10:46.606Z,0.80
2023-03-14T14:13:34.283Z,0.75
2023-03-14T14:16:31.614Z,0.95
2023-03-14T14:19:18.343Z,0.80
2023-03-14T14:22:14.598Z,1.67
2023-03-14T14:25:02.433Z,0.73
2023-03-14T14:27:56.603Z,1.17
2023-03-14T14:30:41.646Z,1.52
2023-03-14T14:33:32.603Z,1.10
2023-03-14T14:36:33.097Z,2.10
2023-03-14T14:39:35.600Z,1.57
2023-03-14T14:42:31.620Z,2.72
2023-03-14T14:45:22.215Z,2.40
2023-03-14T14:48:20.440Z,2.15
2023-03-14T14:51:07.709Z,1.40
2023-03-14T14:54:11.601Z,0.77
2023-03-14T14:57:10.614Z,0.95
2023-03-14T14:59:59.152Z,1.65
2023-03-14T15:03:06.821Z,0.73
2023-03-14T15:05:51.830Z,1.20
2023-03-14T15:08:44.619Z,0.90
2023-03-14T15:11:34.891Z,1.42
2023-03-14T15:14:27.807Z,0.88
2023-03-14T15:17:13.688Z,0.85
2023-03-14T15:20:07.606Z,1.77
2023-03-14T15:22:59.617Z,2.83
2023-03-14T15:25:55.440Z,2.10
2023-03-14T15:28:48.835Z,2.00
2023-03-14T15:31:34.545Z,1.23
2023-03-14T15:34:25.610Z,0.75
2023-03-14T15:37:19.231Z,0.83
2023-03-14T15:40:21.601Z,0.85
2023-03-14T15:43:16.262Z,1.23
2023-03-14T15:46:07.116Z,0.80
2023-03-14T15:48:59.632Z,0.95
2023-03-14T15:51:44.749Z,1.27
2023-03-14T15:54:38.640Z,1.33
2023-03-14T15:57:23.406Z,1.10
2023-03-14T16:00:21.609Z,0.70
2023-03-14T16:03:15.671Z,1.13
2023-03-14T16:06:07.634Z,0.93
2023-03-14T16:08:55.532Z,0.93
2023-03-14T16:11:47.614Z,1.20
2023-03-14T16:14:36.158Z,0.85
2023-03-14T16:17:32.381Z,1.20
2023-03-14T16:20:20.360Z,1.07
2023-03-14T16:23:14.623Z,0.63
2023-03-14T16:26:07.545Z,1.35
2023-03-14T16:29:01.641Z,1.13
2023-03-14T16:31:47.387Z,1.10
2023-03-14T16:34:38.631Z,1.30
2023-03-14T16:37:26.070Z,1.08
2023-03-14T16:40:18.691Z,1.30
2023-03-14T16:43:15.978Z,1.30
2023-03-14T16:46:08.681Z,1.30
2023-03-14T16:49:00.618Z,1.77
2023-03-14T16:51:45.664Z,1.50
2023-03-14T16:54:36.657Z,1.60
2023-03-14T16:57:29.831Z,1.20
2023-03-14T17:00:21.632Z,1.50
2023-03-14T17:03:34.712Z,1.33
2023-03-14T17:06:36.637Z,1.50
2023-03-14T17:09:21.402Z,0.88
2023-03-14T17:12:12.618Z,0.90
2023-03-14T17:15:06.641Z,1.42
2023-03-14T17:17:58.622Z,1.63
2023-03-14T17:20:43.342Z,1.23
2023-03-14T17:23:38.596Z,1.02
2023-03-14T17:26:27.820Z,1.33
2023-03-14T17:29:19.622Z,1.38
2023-03-14T17:32:07.879Z,0.90
2023-03-14T17:35:02.632Z,1.20
2023-03-14T17:37:47.427Z,1.02
2023-03-14T17:40:43.653Z,0.65
2023-03-14T17:43:28.714Z,0.55
2023-03-14T17:46:24.670Z,0.70
2023-03-14T17:49:09.598Z,0.75
2023-03-14T17:52:01.654Z,1.02
2023-03-14T17:54:46.577Z,0.70
2023-03-14T17:57:44.705Z,0.70
2023-03-14T18:00:29.986Z,1.00
2023-03-14T18:03:30.627Z,0.80
2023-03-14T18:06:26.995Z,1.00
2023-03-14T18:09:23.634Z,0.90
2023-03-14T18:12:08.877Z,0.98
2023-03-14T18:15:00.647Z,0.70
2023-03-14T18:17:45.514Z,0.90
2023-03-14T18:20:42.660Z,0.75
2023-03-14T18:23:27.580Z,0.90
2023-03-14T18:26:19.644Z,0.95
2023-03-14T18:29:04.682Z,1.03
2023-03-14T18:31:57.988Z,1.45
2023-03-14T18:34:49.681Z,0.80
2023-03-14T18:37:36.709Z,0.88
2023-03-14T18:40:28.651Z,0.60
2023-03-14T18:43:22.647Z,0.80
2023-03-14T18:46:07.554Z,0.90
2023-03-14T18:49:06.409Z,0.93
2023-03-14T18:52:00.673Z,0.52
2023-03-14T18:54:48.057Z,0.77
2023-03-14T18:57:39.692Z,1.47
2023-03-14T19:00:26.864Z,1.00
2023-03-14T19:03:18.655Z,1.02
2023-03-14T19:06:13.837Z,0.95
2023-03-14T19:09:06.641Z,0.70
2023-03-14T19:11:58.656Z,0.60
2023-03-14T19:14:46.021Z,0.95
2023-03-14T19:17:41.269Z,1.23
2023-03-14T19:20:29.333Z,0.60
2023-03-14T19:23:20.658Z,0.88
2023-03-14T19:26:05.757Z,0.60
2023-03-14T19:28:59.672Z,0.68
2023-03-14T19:31:50.644Z,0.82
2023-03-14T19:34:42.654Z,0.60
2023-03-14T19:37:27.610Z,0.90
2023-03-14T19:40:19.662Z,0.80
2023-03-14T19:43:05.859Z,0.50
2023-03-14T19:45:57.723Z,0.88
2023-03-14T19:48:45.312Z,1.20
2023-03-14T19:51:39.660Z,1.00
2023-03-14T19:54:31.662Z,0.70
2023-03-14T19:57:17.772Z,0.80
2023-03-14T20:00:10.658Z,0.90
2023-03-14T20:03:03.378Z,0.52
2023-03-14T20:05:54.658Z,0.90
2023-03-14T20:08:44.224Z,1.23
2023-03-14T20:11:37.701Z,1.20
2023-03-14T20:14:22.836Z,0.80
2023-03-14T20:17:14.700Z,0.90
2023-03-14T20:19:59.797Z,0.90
2023-03-14T20:22:51.686Z,1.23
2023-03-14T20:25:37.541Z,1.17
2023-03-14T20:28:29.697Z,1.42
2023-03-14T20:31:24.708Z,1.02
2023-03-14T20:34:16.687Z,1.20
2023-03-14T20:37:10.672Z,1.43
2023-03-14T20:40:01.634Z,1.40
2023-03-14T20:42:56.680Z,1.25
2023-03-14T20:45:48.685Z,0.93
2023-03-14T20:48:33.611Z,0.70
2023-03-14T20:51:25.937Z,0.80
2023-03-14T20:54:14.056Z,0.93
2023-03-14T20:57:05.678Z,1.17
2023-03-14T20:59:57.665Z,0.90
2023-03-14T21:02:49.688Z,1.35
2023-03-14T21:05:34.822Z,1.17
2023-03-14T21:08:34.751Z,1.15
2023-03-14T21:11:26.669Z,1.30
2023-03-14T21:14:17.700Z,1.58
2023-03-14T21:17:02.446Z,1.30
2023-03-14T21:19:53.761Z,1.23
2023-03-14T21:22:39.207Z,0.70
2023-03-14T21:25:33.663Z,1.00
2023-03-14T21:28:25.719Z,0.95
2023-03-14T21:31:13.610Z,1.25
2023-03-14T21:34:06.693Z,1.10
2023-03-14T21:36:56.769Z,1.10
2023-03-14T21:39:50.645Z,1.30
2023-03-14T21:42:35.995Z,0.75
2023-03-14T21:45:34.978Z,1.20
2023-03-14T21:48:28.677Z,1.10
2023-03-14T21:51:13.779Z,0.98
2023-03-14T21:54:05.697Z,1.40
2023-03-14T21:56:57.677Z,1.27
2023-03-14T21:59:53.644Z,1.30
2023-03-14T22:02:58.366Z,1.50
2023-03-14T22:06:09.705Z,1.70
2023-03-14T22:08:57.505Z,1.48
2023-03-14T22:11:49.704Z,1.38
2023-03-14T22:14:34.963Z,1.58
2023-03-14T22:17:27.671Z,1.90
2023-03-14T22:20:21.935Z,1.20
2023-03-14T22:23:09.249Z,1.67
2023-03-14T22:26:00.683Z,1.90
2023-03-14T22:28:51.685Z,1.00
2023-03-14T22:31:39.189Z,1.37
2023-03-14T22:34:35.677Z,1.33
2023-03-14T22:37:23.849Z,1.63
2023-03-14T22:40:16.687Z,1.27
2023-03-14T22:43:01.685Z,1.00
2023-03-14T22:46:09.748Z,1.20
2023-03-14T22:48:57.090Z,1.27
2023-03-14T22:51:48.775Z,0.90
2023-03-14T22:54:40.695Z,1.35
2023-03-14T22:57:32.693Z,1.33
2023-03-14T23:00:20.944Z,1.13
2023-03-14T23:03:12.741Z,1.45
2023-03-14T23:05:57.636Z,0.80
2023-03-14T23:08:49.680Z,0.88
2023-03-14T23:11:42.712Z,1.20
2023-03-14T23:14:30.334Z,1.10
2023-03-14T23:17:25.913Z,1.00
2023-03-14T23:20:20.695Z,1.08
2023-03-14T23:23:09.422Z,1.08
2023-03-14T23:26:03.713Z,1.58
2023-03-14T23:28:49.467Z,1.30
2023-03-14T23:31:40.704Z,1.23
2023-03-14T23:34:27.232Z,1.30
2023-03-14T23:37:20.921Z,1.23
2023-03-14T23:40:07.894Z,1.10
2023-03-14T23:43:02.535Z,1.23
2023-03-14T23:45:56.981Z,1.65
2023-03-14T23:48:50.768Z,1.17
2023-03-14T23:51:35.932Z,1.45
2023-03-14T23:54:33.924Z,0.95
2023-03-14T23:57:19.073Z,1.00
